sensor_id;sensor_type;location;lat;lon;timestamp;pressure;altitude;pressure_sealevel;temperature;humidity
32789;BME280;19141;48.980;8.410;2022-09-16T04:17:20;99663.41;;;13.92;100.00
32789;BME280;19141;48.980;8.410;2022-09-16T04:19:46;99668.56;;;13.87;100.00
32789;BME280;19141;48.980;8.410;2022-09-16T04:22:11;99673.91;;;13.87;100.00
32789;BME280;19141;48.980;8.410;2022-09-16T04:24:37;99672.03;;;13.88;100.00
32789;BME280;19141;48.980;8.410;2022-09-16T04:27:02;99667.31;;;13.90;100.00
32789;BME280;19141;48.980;8.410;2022-09-16T04:29:27;99671.22;;;13.94;100.00
32789;BME280;19141;48.980;8.410;2022-09-16T04:31:54;99667.09;;;13.91;100.00
32789;BME280;19141;48.980;8.410;2022-09-16T04:34:19;99669.19;;;13.89;100.00
32789;BME280;19141;48.980;8.410;2022-09-16T04:36:44;99673.28;;;13.92;100.00
32789;BME280;19141;48.980;8.410;2022-09-16T04:39:10;99670.59;;;13.92;100.00
32789;BME280;19141;48.980;8.410;2022-09-16T04:41:37;99671.22;;;13.94;100.00
32789;BME280;19141;48.980;8.410;2022-09-16T04:44:03;99674.53;;;13.96;100.00
32789;BME280;19141;48.980;8.410;2022-09-16T04:46:30;99679.47;;;13.92;100.00
32789;BME280;19141;48.980;8.410;2022-09-16T04:48:57;99668.34;;;13.89;100.00
32789;BME280;19141;48.980;8.410;2022-09-16T04:51:23;99665.66;;;13.89;100.00
32789;BME280;19141;48.980;8.410;2022-09-16T04:53:52;99668.97;;;13.91;100.00
32789;BME280;19141;48.980;8.410;2022-09-16T04:56:21;99662.78;;;13.90;100.00
32789;BME280;19141;48.980;8.410;2022-09-16T04:58:52;99677.41;;;13.88;100.00
32789;BME280;19141;48.980;8.410;2022-09-16T05:01:23;99675.38;;;13.83;100.00
32789;BME280;19141;48.980;8.410;2022-09-16T05:03:52;99681.53;;;13.83;100.00
32789;BME280;19141;48.980;8.410;2022-09-16T05:06:20;99673.28;;;13.85;100.00
32789;BME280;19141;48.980;8.410;2022-09-16T05:08:46;99672.88;;;13.81;100.00
32789;BME280;19141;48.980;8.410;2022-09-16T05:11:15;99670.84;;;13.83;100.00
32789;BME280;19141;48.980;8.410;2022-09-16T05:13:41;99676.00;;;13.72;100.00
32789;BME280;19141;48.980;8.410;2022-09-16T05:16:08;99681.13;;;13.73;100.00
32789;BME280;19141;48.980;8.410;2022-09-16T05:18:34;99681.13;;;13.67;100.00
32789;BME280;19141;48.980;8.410;2022-09-16T05:21:02;99684.84;;;13.72;100.00
32789;BME280;19141;48.980;8.410;2022-09-16T05:23:29;99680.75;;;13.63;100.00
32789;BME280;19141;48.980;8.410;2022-09-16T05:25:54;99681.97;;;13.61;100.00
32789;BME280;19141;48.980;8.410;2022-09-16T05:28:20;99673.53;;;13.64;100.00
32789;BME280;19141;48.980;8.410;2022-09-16T05:30:46;99676.38;;;13.62;100.00
32789;BME280;19141;48.980;8.410;2022-09-16T05:33:11;99679.72;;;13.57;100.00
32789;BME280;19141;48.980;8.410;2022-09-16T05:35:37;99676.00;;;13.58;100.00
32789;BME280;19141;48.980;8.410;2022-09-16T05:38:03;99677.84;;;13.51;100.00
32789;BME280;19141;48.980;8.410;2022-09-16T05:40:28;99679.88;;;13.56;100.00
32789;BME280;19141;48.980;8.410;2022-09-16T05:42:53;99668.38;;;13.49;100.00
32789;BME280;19141;48.980;8.410;2022-09-16T05:45:20;99675.38;;;13.56;100.00
32789;BME280;19141;48.980;8.410;2022-09-16T05:47:49;99678.25;;;13.55;100.00
32789;BME280;19141;48.980;8.410;2022-09-16T05:50:14;99677.44;;;13.54;100.00
32789;BME280;19141;48.980;8.410;2022-09-16T05:52:40;99683.41;;;13.56;100.00
32789;BME280;19141;48.980;8.410;2022-09-16T05:55:06;99679.88;;;13.49;100.00
32789;BME280;19141;48.980;8.410;2022-09-16T05:57:31;99685.88;;;13.51;100.00
32789;BME280;19141;48.980;8.410;2022-09-16T05:59:56;99689.38;;;13.52;100.00
32789;BME280;19141;48.980;8.410;2022-09-16T06:02:22;99694.50;;;13.47;100.00
32789;BME280;19141;48.980;8.410;2022-09-16T06:04:47;99696.38;;;13.40;100.00
32789;BME280;19141;48.980;8.410;2022-09-16T06:07:13;99702.16;;;13.43;100.00
32789;BME280;19141;48.980;8.410;2022-09-16T06:09:38;99698.44;;;13.38;100.00
32789;BME280;19141;48.980;8.410;2022-09-16T06:12:04;99709.13;;;13.38;100.00
32789;BME280;19141;48.980;8.410;2022-09-16T06:14:29;99713.66;;;13.37;100.00
32789;BME280;19141;48.980;8.410;2022-09-16T06:16:55;99715.31;;;13.38;100.00
32789;BME280;19141;48.980;8.410;2022-09-16T06:19:21;99707.50;;;13.37;100.00
32789;BME280;19141;48.980;8.410;2022-09-16T06:21:46;99707.88;;;13.40;100.00
32789;BME280;19141;48.980;8.410;2022-09-16T06:24:14;99708.31;;;13.44;100.00
32789;BME280;19141;48.980;8.410;2022-09-16T06:26:41;99708.94;;;13.46;100.00
32789;BME280;19141;48.980;8.410;2022-09-16T06:29:08;99714.88;;;13.41;100.00
32789;BME280;19141;48.980;8.410;2022-09-16T06:31:34;99721.88;;;13.42;100.00
32789;BME280;19141;48.980;8.410;2022-09-16T06:34:00;99710.16;;;13.37;100.00
32789;BME280;19141;48.980;8.410;2022-09-16T06:36:29;99712.41;;;13.40;100.00
32789;BME280;19141;48.980;8.410;2022-09-16T06:38:54;99707.50;;;13.37;100.00
32789;BME280;19141;48.980;8.410;2022-09-16T06:41:20;99703.34;;;13.34;100.00
32789;BME280;19141;48.980;8.410;2022-09-16T06:43:48;99703.13;;;13.36;100.00
32789;BME280;19141;48.980;8.410;2022-09-16T06:46:18;99701.50;;;13.35;100.00
32789;BME280;19141;48.980;8.410;2022-09-16T06:48:46;99700.28;;;13.30;100.00
32789;BME280;19141;48.980;8.410;2022-09-16T06:51:17;99706.03;;;13.34;100.00
32789;BME280;19141;48.980;8.410;2022-09-16T06:53:43;99710.56;;;13.34;100.00
32789;BME280;19141;48.980;8.410;2022-09-16T06:56:11;99707.44;;;13.30;100.00
32789;BME280;19141;48.980;8.410;2022-09-16T06:58:37;99700.88;;;13.33;100.00
32789;BME280;19141;48.980;8.410;2022-09-16T07:01:18;99699.25;;;13.32;100.00
32789;BME280;19141;48.980;8.410;2022-09-16T07:03:46;99703.94;;;13.29;100.00
32789;BME280;19141;48.980;8.410;2022-09-16T07:06:12;99703.78;;;13.31;100.00
32789;BME280;19141;48.980;8.410;2022-09-16T07:08:39;99709.72;;;13.33;100.00
32789;BME280;19141;48.980;8.410;2022-09-16T07:11:13;99710.75;;;13.32;100.00
32789;BME280;19141;48.980;8.410;2022-09-16T07:13:39;99708.69;;;13.34;100.00
32789;BME280;19141;48.980;8.410;2022-09-16T07:16:08;99712.00;;;13.36;100.00
32789;BME280;19141;48.980;8.410;2022-09-16T07:18:34;99708.31;;;13.30;100.00
32789;BME280;19141;48.980;8.410;2022-09-16T07:21:04;99716.50;;;13.36;100.00
32789;BME280;19141;48.980;8.410;2022-09-16T07:23:31;99718.78;;;13.39;100.00
32789;BME280;19141;48.980;8.410;2022-09-16T07:26:07;99712.41;;;13.40;100.00
32789;BME280;19141;48.980;8.410;2022-09-16T07:28:34;99712.44;;;13.53;100.00
32789;BME280;19141;48.980;8.410;2022-09-16T07:31:07;99706.03;;;13.54;100.00
32789;BME280;19141;48.980;8.410;2022-09-16T07:33:38;99714.06;;;13.61;100.00
32789;BME280;19141;48.980;8.410;2022-09-16T07:36:05;99713.47;;;13.65;100.00
32789;BME280;19141;48.980;8.410;2022-09-16T07:38:31;99713.69;;;13.70;100.00
32789;BME280;19141;48.980;8.410;2022-09-16T07:41:18;99717.16;;;13.77;100.00
32789;BME280;19141;48.980;8.410;2022-09-16T07:43:44;99720.22;;;13.88;100.00
32789;BME280;19141;48.980;8.410;2022-09-16T07:46:11;99728.69;;;13.98;100.00
32789;BME280;19141;48.980;8.410;2022-09-16T07:48:37;99724.75;;;14.00;100.00
32789;BME280;19141;48.980;8.410;2022-09-16T07:51:11;99721.69;;;14.03;100.00
32789;BME280;19141;48.980;8.410;2022-09-16T07:53:37;99724.75;;;14.00;100.00
32789;BME280;19141;48.980;8.410;2022-09-16T07:56:05;99727.63;;;14.05;100.00
32789;BME280;19141;48.980;8.410;2022-09-16T07:58:31;99729.47;;;14.11;100.00
32789;BME280;19141;48.980;8.410;2022-09-16T08:00:57;99744.13;;;14.16;100.00
32789;BME280;19141;48.980;8.410;2022-09-16T08:03:23;99739.16;;;14.19;100.00
32789;BME280;19141;48.980;8.410;2022-09-16T08:05:48;99742.06;;;14.11;100.00
32789;BME280;19141;48.980;8.410;2022-09-16T08:08:14;99742.88;;;14.11;100.00
32789;BME280;19141;48.980;8.410;2022-09-16T08:10:39;99741.22;;;14.10;100.00
32789;BME280;19141;48.980;8.410;2022-09-16T08:13:06;99745.34;;;14.13;100.00
32789;BME280;19141;48.980;8.410;2022-09-16T08:15:32;99741.63;;;14.21;100.00
32789;BME280;19141;48.980;8.410;2022-09-16T08:17:57;99748.22;;;14.18;100.00
32789;BME280;19141;48.980;8.410;2022-09-16T08:20:28;99745.34;;;14.13;100.00
32789;BME280;19141;48.980;8.410;2022-09-16T08:22:57;99746.38;;;14.19;100.00
32789;BME280;19141;48.980;8.410;2022-09-16T08:25:23;99752.97;;;14.16;100.00
32789;BME280;19141;48.980;8.410;2022-09-16T08:27:48;99757.09;;;14.12;100.00
32789;BME280;19141;48.980;8.410;2022-09-16T08:30:13;99754.41;;;14.12;100.00
32789;BME280;19141;48.980;8.410;2022-09-16T08:32:39;99754.19;;;14.13;100.00
32789;BME280;19141;48.980;8.410;2022-09-16T08:35:05;99749.66;;;14.14;100.00
32789;BME280;19141;48.980;8.410;2022-09-16T08:37:30;99746.78;;;14.16;100.00
32789;BME280;19141;48.980;8.410;2022-09-16T08:39:56;99748.44;;;14.23;100.00
32789;BME280;19141;48.980;8.410;2022-09-16T08:42:35;99752.53;;;14.26;100.00
32789;BME280;19141;48.980;8.410;2022-09-16T08:45:34;99751.50;;;14.27;100.00
32789;BME280;19141;48.980;8.410;2022-09-16T08:51:00;99757.66;;;14.34;100.00
32789;BME280;19141;48.980;8.410;2022-09-16T08:56:02;99763.44;;;14.37;100.00
32789;BME280;19141;48.980;8.410;2022-09-16T08:58:38;99759.34;;;14.28;100.00
32789;BME280;19141;48.980;8.410;2022-09-16T09:01:14;99762.84;;;14.35;100.00
32789;BME280;19141;48.980;8.410;2022-09-16T09:03:45;99771.06;;;14.34;100.00
32789;BME280;19141;48.980;8.410;2022-09-16T09:06:24;99771.50;;;14.24;100.00
32789;BME280;19141;48.980;8.410;2022-09-16T09:11:56;99771.28;;;14.19;100.00
32789;BME280;19141;48.980;8.410;2022-09-16T09:25:42;99757.09;;;14.05;100.00
32789;BME280;19141;48.980;8.410;2022-09-16T09:30:54;99773.97;;;14.12;100.00
32789;BME280;19141;48.980;8.410;2022-09-16T09:33:51;99777.47;;;14.13;100.00
32789;BME280;19141;48.980;8.410;2022-09-16T09:41:47;99777.69;;;14.11;100.00
32789;BME280;19141;48.980;8.410;2022-09-16T09:44:35;99773.16;;;14.12;100.00
32789;BME280;19141;48.980;8.410;2022-09-16T09:50:29;99774.78;;;14.13;100.00
32789;BME280;19141;48.980;8.410;2022-09-16T10:01:52;99773.38;;;14.04;100.00
32789;BME280;19141;48.980;8.410;2022-09-16T10:04:18;99769.06;;;14.03;100.00
32789;BME280;19141;48.980;8.410;2022-09-16T10:06:44;99773.16;;;13.99;100.00
32789;BME280;19141;48.980;8.410;2022-09-16T10:09:14;99776.66;;;14.06;100.00
32789;BME280;19141;48.980;8.410;2022-09-16T10:11:48;99781.19;;;14.05;100.00
32789;BME280;19141;48.980;8.410;2022-09-16T10:14:30;99778.72;;;14.04;100.00
32789;BME280;19141;48.980;8.410;2022-09-16T10:16:56;99779.34;;;13.99;100.00
32789;BME280;19141;48.980;8.410;2022-09-16T10:19:26;99785.50;;;14.06;100.00
32789;BME280;19141;48.980;8.410;2022-09-16T10:21:54;99783.06;;;14.11;100.00
32789;BME280;19141;48.980;8.410;2022-09-16T10:26:55;99770.09;;;14.08;100.00
32789;BME280;19141;48.980;8.410;2022-09-16T10:29:20;99776.25;;;14.16;100.00
32789;BME280;19141;48.980;8.410;2022-09-16T10:31:46;99772.13;;;14.13;100.00
32789;BME280;19141;48.980;8.410;2022-09-16T10:34:20;99764.91;;;14.20;100.00
32789;BME280;19141;48.980;8.410;2022-09-16T10:36:58;99763.44;;;14.31;100.00
32789;BME280;19141;48.980;8.410;2022-09-16T10:39:25;99768.78;;;14.37;100.00
32789;BME280;19141;48.980;8.410;2022-09-16T10:41:52;99769.41;;;14.46;100.00
32789;BME280;19141;48.980;8.410;2022-09-16T10:44:31;99776.00;;;14.57;100.00
32789;BME280;19141;48.980;8.410;2022-09-16T10:47:00;99768.34;;;14.67;100.00
32789;BME280;19141;48.980;8.410;2022-09-16T10:49:37;99765.22;;;14.70;100.00
32789;BME280;19141;48.980;8.410;2022-09-16T10:52:13;99769.13;;;14.81;100.00
32789;BME280;19141;48.980;8.410;2022-09-16T10:54:40;99764.91;;;14.98;100.00
32789;BME280;19141;48.980;8.410;2022-09-16T11:05:54;99770.69;;;15.96;96.82
32789;BME280;19141;48.980;8.410;2022-09-16T11:08:39;99774.63;;;16.19;95.43
32789;BME280;19141;48.980;8.410;2022-09-16T11:20:05;99773.00;;;17.28;90.44
32789;BME280;19141;48.980;8.410;2022-09-16T11:25:46;99770.91;;;17.30;84.71
32789;BME280;19141;48.980;8.410;2022-09-16T11:31:38;99758.63;;;17.76;84.92
32789;BME280;19141;48.980;8.410;2022-09-16T11:34:17;99770.97;;;18.18;79.81
32789;BME280;19141;48.980;8.410;2022-09-16T11:36:53;99762.75;;;18.72;79.43
32789;BME280;19141;48.980;8.410;2022-09-16T11:44:40;99746.94;;;18.40;76.63
32789;BME280;19141;48.980;8.410;2022-09-16T11:50:13;99744.63;;;19.87;68.09
32789;BME280;19141;48.980;8.410;2022-09-16T11:58:57;99744.69;;;19.01;73.10
32789;BME280;19141;48.980;8.410;2022-09-16T12:07:00;99723.66;;;19.60;73.56
32789;BME280;19141;48.980;8.410;2022-09-16T12:09:40;99732.59;;;20.33;69.21
32789;BME280;19141;48.980;8.410;2022-09-16T12:12:17;99729.91;;;20.94;64.03
32789;BME280;19141;48.980;8.410;2022-09-16T12:14:57;99731.31;;;20.79;62.87
32789;BME280;19141;48.980;8.410;2022-09-16T12:17:26;99715.19;;;20.63;63.00
32789;BME280;19141;48.980;8.410;2022-09-16T12:22:38;99714.44;;;20.28;57.20
32789;BME280;19141;48.980;8.410;2022-09-16T12:25:12;99717.44;;;20.32;57.05
32789;BME280;19141;48.980;8.410;2022-09-16T12:27:52;99720.69;;;20.73;55.34
32789;BME280;19141;48.980;8.410;2022-09-16T12:30:22;99719.00;;;21.16;51.15
32789;BME280;19141;48.980;8.410;2022-09-16T12:33:33;99708.50;;;21.19;48.94
32789;BME280;19141;48.980;8.410;2022-09-16T12:38:28;99714.28;;;20.18;55.79
32789;BME280;19141;48.980;8.410;2022-09-16T12:41:23;99704.56;;;20.39;54.25
32789;BME280;19141;48.980;8.410;2022-09-16T12:52:35;99703.97;;;18.74;58.77
32789;BME280;19141;48.980;8.410;2022-09-16T12:58:15;99695.16;;;17.92;62.35
32789;BME280;19141;48.980;8.410;2022-09-16T13:00:54;99693.00;;;17.70;64.33
32789;BME280;19141;48.980;8.410;2022-09-16T13:03:26;99689.34;;;17.53;64.07
32789;BME280;19141;48.980;8.410;2022-09-16T13:05:53;99700.63;;;17.61;63.25
32789;BME280;19141;48.980;8.410;2022-09-16T13:08:29;99694.69;;;17.71;65.79
32789;BME280;19141;48.980;8.410;2022-09-16T13:11:00;99686.22;;;17.68;66.33
32789;BME280;19141;48.980;8.410;2022-09-16T13:13:41;99691.34;;;17.57;66.85
32789;BME280;19141;48.980;8.410;2022-09-16T13:16:10;99684.19;;;17.28;65.24
32789;BME280;19141;48.980;8.410;2022-09-16T13:18:48;99681.13;;;17.24;65.03
32789;BME280;19141;48.980;8.410;2022-09-16T13:21:26;99673.72;;;17.20;66.03
32789;BME280;19141;48.980;8.410;2022-09-16T13:26:56;99678.13;;;17.44;67.83
32789;BME280;19141;48.980;8.410;2022-09-16T13:29:42;99674.38;;;17.57;68.62
32789;BME280;19141;48.980;8.410;2022-09-16T13:32:55;99670.31;;;17.78;66.38
32789;BME280;19141;48.980;8.410;2022-09-16T13:37:57;99670.91;;;17.92;66.82
32789;BME280;19141;48.980;8.410;2022-09-16T13:40:26;99667.38;;;17.79;68.05
32789;BME280;19141;48.980;8.410;2022-09-16T13:45:41;99662.19;;;17.66;61.03
32789;BME280;19141;48.980;8.410;2022-09-16T13:48:18;99659.44;;;17.73;62.78
32789;BME280;19141;48.980;8.410;2022-09-16T13:50:49;99663.31;;;17.88;60.29
32789;BME280;19141;48.980;8.410;2022-09-16T13:53:30;99659.81;;;17.88;58.59
32789;BME280;19141;48.980;8.410;2022-09-16T13:58:53;99667.88;;;17.76;61.82
32789;BME280;19141;48.980;8.410;2022-09-16T14:01:29;99665.06;;;17.71;59.70
32789;BME280;19141;48.980;8.410;2022-09-16T14:14:49;99659.66;;;18.06;65.80
32789;BME280;19141;48.980;8.410;2022-09-16T14:17:38;99663.94;;;18.31;62.88
32789;BME280;19141;48.980;8.410;2022-09-16T14:20:13;99656.75;;;18.48;60.81
32789;BME280;19141;48.980;8.410;2022-09-16T14:22:42;99656.72;;;18.60;56.65
32789;BME280;19141;48.980;8.410;2022-09-16T14:25:26;99650.03;;;18.62;60.40
32789;BME280;19141;48.980;8.410;2022-09-16T14:28:06;99644.78;;;18.56;58.02
32789;BME280;19141;48.980;8.410;2022-09-16T14:30:31;99648.78;;;18.53;58.01
32789;BME280;19141;48.980;8.410;2022-09-16T14:32:57;99654.28;;;18.58;53.91
32789;BME280;19141;48.980;8.410;2022-09-16T14:35:24;99649.72;;;18.59;52.87
32789;BME280;19141;48.980;8.410;2022-09-16T14:37:59;99645.59;;;18.56;52.42
32789;BME280;19141;48.980;8.410;2022-09-16T14:40:27;99648.88;;;18.58;53.12
32789;BME280;19141;48.980;8.410;2022-09-16T14:42:57;99647.38;;;18.51;52.59
32789;BME280;19141;48.980;8.410;2022-09-16T14:45:24;99645.59;;;18.56;53.93
32789;BME280;19141;48.980;8.410;2022-09-16T14:47:51;99646.19;;;18.58;54.06
32789;BME280;19141;48.980;8.410;2022-09-16T14:50:22;99648.00;;;18.29;52.95
32789;BME280;19141;48.980;8.410;2022-09-16T14:55:21;99641.81;;;18.29;51.70
32789;BME280;19141;48.980;8.410;2022-09-16T14:57:47;99643.19;;;18.31;50.67
32789;BME280;19141;48.980;8.410;2022-09-16T15:00:14;99639.59;;;18.26;50.26
32789;BME280;19141;48.980;8.410;2022-09-16T15:02:50;99644.38;;;18.24;50.56
32789;BME280;19141;48.980;8.410;2022-09-16T15:07:48;99642.50;;;18.24;50.99
32789;BME280;19141;48.980;8.410;2022-09-16T15:10:19;99647.34;;;18.22;52.36
32789;BME280;19141;48.980;8.410;2022-09-16T15:12:49;99646.88;;;18.13;49.41
32789;BME280;19141;48.980;8.410;2022-09-16T15:15:22;99643.16;;;17.91;48.95
32789;BME280;19141;48.980;8.410;2022-09-16T15:18:02;99641.50;;;17.78;50.46
32789;BME280;19141;48.980;8.410;2022-09-16T15:20:33;99644.09;;;17.85;51.30
32789;BME280;19141;48.980;8.410;2022-09-16T15:23:00;99642.22;;;17.85;51.56
32789;BME280;19141;48.980;8.410;2022-09-16T15:25:30;99647.97;;;17.89;52.00
32789;BME280;19141;48.980;8.410;2022-09-16T15:28:16;99647.59;;;17.85;53.05
32789;BME280;19141;48.980;8.410;2022-09-16T15:30:46;99639.19;;;17.82;51.64
32789;BME280;19141;48.980;8.410;2022-09-16T15:33:35;99647.25;;;17.82;54.12
32789;BME280;19141;48.980;8.410;2022-09-16T15:36:02;99645.38;;;17.82;54.07
32789;BME280;19141;48.980;8.410;2022-09-16T15:38:28;99647.25;;;17.82;54.46
32789;BME280;19141;48.980;8.410;2022-09-16T15:41:24;99652.53;;;17.77;53.40
32789;BME280;19141;48.980;8.410;2022-09-16T15:43:50;99648.09;;;17.82;52.89
32789;BME280;19141;48.980;8.410;2022-09-16T15:46:21;99645.34;;;17.71;53.01
32789;BME280;19141;48.980;8.410;2022-09-16T15:48:49;99653.09;;;17.79;52.22
32789;BME280;19141;48.980;8.410;2022-09-16T15:51:35;99657.34;;;17.75;54.43
32789;BME280;19141;48.980;8.410;2022-09-16T15:54:23;99653.91;;;17.68;54.02
32789;BME280;19141;48.980;8.410;2022-09-16T15:57:29;99665.72;;;17.55;54.28
32789;BME280;19141;48.980;8.410;2022-09-16T15:59:59;99665.34;;;17.51;54.50
32789;BME280;19141;48.980;8.410;2022-09-16T16:02:51;99668.50;;;17.36;55.11
32789;BME280;19141;48.980;8.410;2022-09-16T16:05:20;99669.53;;;17.24;54.01
32789;BME280;19141;48.980;8.410;2022-09-16T16:07:49;99672.47;;;17.22;55.53
32789;BME280;19141;48.980;8.410;2022-09-16T16:10:20;99673.00;;;17.13;56.23
32789;BME280;19141;48.980;8.410;2022-09-16T16:12:47;99685.16;;;17.03;57.82
32789;BME280;19141;48.980;8.410;2022-09-16T16:15:27;99681.59;;;16.91;57.42
32789;BME280;19141;48.980;8.410;2022-09-16T16:17:56;99684.63;;;16.95;55.97
32789;BME280;19141;48.980;8.410;2022-09-16T16:20:23;99694.00;;;16.92;55.95
32789;BME280;19141;48.980;8.410;2022-09-16T16:22:49;99695.97;;;16.85;56.17
32789;BME280;19141;48.980;8.410;2022-09-16T16:25:15;99696.72;;;16.74;57.58
32789;BME280;19141;48.980;8.410;2022-09-16T16:27:41;99667.53;;;16.41;58.97
32789;BME280;19141;48.980;8.410;2022-09-16T16:30:07;99696.84;;;16.61;58.17
32789;BME280;19141;48.980;8.410;2022-09-16T16:32:33;99697.41;;;16.33;60.05
32789;BME280;19141;48.980;8.410;2022-09-16T16:34:59;99696.56;;;16.32;59.22
32789;BME280;19141;48.980;8.410;2022-09-16T16:37:25;99703.50;;;16.40;61.61
32789;BME280;19141;48.980;8.410;2022-09-16T16:39:52;99705.00;;;16.36;61.09
32789;BME280;19141;48.980;8.410;2022-09-16T16:42:18;99711.19;;;16.36;59.80
32789;BME280;19141;48.980;8.410;2022-09-16T16:44:43;99713.88;;;16.36;60.26
32789;BME280;19141;48.980;8.410;2022-09-16T16:47:09;99717.53;;;16.23;62.51
32789;BME280;19141;48.980;8.410;2022-09-16T16:49:35;99717.25;;;16.32;62.00
32789;BME280;19141;48.980;8.410;2022-09-16T16:52:02;99717.00;;;16.15;61.11
32789;BME280;19141;48.980;8.410;2022-09-16T16:54:28;99719.25;;;16.18;59.50
32789;BME280;19141;48.980;8.410;2022-09-16T16:56:54;99723.44;;;16.14;60.33
32789;BME280;19141;48.980;8.410;2022-09-16T16:59:20;99723.72;;;16.06;59.76
32789;BME280;19141;48.980;8.410;2022-09-16T17:01:49;99730.56;;;16.01;60.84
32789;BME280;19141;48.980;8.410;2022-09-16T17:04:15;99732.88;;;15.98;60.73
32789;BME280;19141;48.980;8.410;2022-09-16T17:06:40;99731.22;;;15.97;60.99
32789;BME280;19141;48.980;8.410;2022-09-16T17:09:07;99737.28;;;15.92;61.46
32789;BME280;19141;48.980;8.410;2022-09-16T17:11:34;99721.69;;;15.76;62.60
32789;BME280;19141;48.980;8.410;2022-09-16T17:14:05;99737.97;;;15.81;62.26
32789;BME280;19141;48.980;8.410;2022-09-16T17:16:32;99741.25;;;15.83;63.61
32789;BME280;19141;48.980;8.410;2022-09-16T17:18:59;99740.78;;;15.68;63.81
32789;BME280;19141;48.980;8.410;2022-09-16T17:21:27;99745.16;;;15.62;63.61
32789;BME280;19141;48.980;8.410;2022-09-16T17:23:53;99742.25;;;15.57;62.54
32789;BME280;19141;48.980;8.410;2022-09-16T17:26:20;99743.53;;;15.55;64.51
32789;BME280;19141;48.980;8.410;2022-09-16T17:28:47;99748.91;;;15.55;64.47
32789;BME280;19141;48.980;8.410;2022-09-16T17:31:18;99748.91;;;15.55;64.75
32789;BME280;19141;48.980;8.410;2022-09-16T17:33:48;99747.25;;;15.54;63.26
32789;BME280;19141;48.980;8.410;2022-09-16T17:36:15;99755.94;;;15.49;64.19
32789;BME280;19141;48.980;8.410;2022-09-16T17:38:41;99759.72;;;15.41;64.13
32789;BME280;19141;48.980;8.410;2022-09-16T17:41:12;99768.41;;;15.37;65.56
32789;BME280;19141;48.980;8.410;2022-09-16T17:43:40;99762.81;;;15.38;62.90
32789;BME280;19141;48.980;8.410;2022-09-16T17:46:11;99761.44;;;15.29;64.15
32789;BME280;19141;48.980;8.410;2022-09-16T17:48:38;99757.59;;;15.12;66.56
32789;BME280;19141;48.980;8.410;2022-09-16T17:51:03;99763.44;;;15.02;67.57
32789;BME280;19141;48.980;8.410;2022-09-16T17:53:29;99767.13;;;15.08;67.79
32789;BME280;19141;48.980;8.410;2022-09-16T17:56:09;99774.59;;;14.99;69.08
32789;BME280;19141;48.980;8.410;2022-09-16T17:58:36;99772.78;;;14.86;69.70
32789;BME280;19141;48.980;8.410;2022-09-16T18:01:09;99766.84;;;14.78;71.78
32789;BME280;19141;48.980;8.410;2022-09-16T18:03:37;99781.09;;;14.72;69.34
32789;BME280;19141;48.980;8.410;2022-09-16T18:06:15;99781.91;;;14.72;71.14
32789;BME280;19141;48.980;8.410;2022-09-16T18:08:42;99779.69;;;14.62;71.69
32789;BME280;19141;48.980;8.410;2022-09-16T18:11:09;99786.50;;;14.45;73.64
32789;BME280;19141;48.980;8.410;2022-09-16T18:13:35;99789.78;;;14.40;75.90
32789;BME280;19141;48.980;8.410;2022-09-16T18:16:09;99792.69;;;14.32;74.56
32789;BME280;19141;48.980;8.410;2022-09-16T18:18:36;99792.94;;;14.24;75.94
32789;BME280;19141;48.980;8.410;2022-09-16T18:21:04;99794.19;;;14.08;75.06
32789;BME280;19141;48.980;8.410;2022-09-16T18:23:30;99802.22;;;14.08;74.66
32789;BME280;19141;48.980;8.410;2022-09-16T18:25:56;99800.38;;;13.96;75.74
32789;BME280;19141;48.980;8.410;2022-09-16T18:28:22;99814.16;;;13.93;76.04
32789;BME280;19141;48.980;8.410;2022-09-16T18:31:00;99805.91;;;13.88;75.67
32789;BME280;19141;48.980;8.410;2022-09-16T18:33:25;99808.38;;;13.76;77.48
32789;BME280;19141;48.980;8.410;2022-09-16T18:35:56;99811.66;;;13.71;78.88
32789;BME280;19141;48.980;8.410;2022-09-16T18:38:22;99827.06;;;13.63;79.68
32789;BME280;19141;48.980;8.410;2022-09-16T18:40:47;99827.47;;;13.53;83.60
32789;BME280;19141;48.980;8.410;2022-09-16T18:43:13;99837.97;;;13.48;84.09
32789;BME280;19141;48.980;8.410;2022-09-16T18:45:38;99832.78;;;13.40;85.49
32789;BME280;19141;48.980;8.410;2022-09-16T18:48:03;99839.53;;;13.22;85.16
32789;BME280;19141;48.980;8.410;2022-09-16T18:50:29;99833.13;;;13.23;84.85
32789;BME280;19141;48.980;8.410;2022-09-16T18:52:54;99843.69;;;13.32;83.42
32789;BME280;19141;48.980;8.410;2022-09-16T18:55:20;99838.69;;;13.22;85.77
32789;BME280;19141;48.980;8.410;2022-09-16T18:57:45;99849.78;;;13.19;86.10
32789;BME280;19141;48.980;8.410;2022-09-16T19:00:11;99850.59;;;13.19;86.93
32789;BME280;19141;48.980;8.410;2022-09-16T19:02:36;99849.03;;;12.97;87.91
32789;BME280;19141;48.980;8.410;2022-09-16T19:05:02;99851.50;;;12.92;91.50
32789;BME280;19141;48.980;8.410;2022-09-16T19:07:27;99854.31;;;12.84;92.07
32789;BME280;19141;48.980;8.410;2022-09-16T19:09:53;99859.50;;;12.85;91.51
32789;BME280;19141;48.980;8.410;2022-09-16T19:12:18;99859.03;;;12.82;91.37
32789;BME280;19141;48.980;8.410;2022-09-16T19:14:44;99861.88;;;12.73;91.09
32789;BME280;19141;48.980;8.410;2022-09-16T19:17:10;99869.31;;;12.78;93.97
32789;BME280;19141;48.980;8.410;2022-09-16T19:19:35;99862.88;;;12.66;95.40
32789;BME280;19141;48.980;8.410;2022-09-16T19:22:03;99859.38;;;12.65;92.65
32789;BME280;19141;48.980;8.410;2022-09-16T19:24:36;99866.75;;;12.63;92.67
32789;BME280;19141;48.980;8.410;2022-09-16T19:27:02;99856.72;;;12.65;93.40
32789;BME280;19141;48.980;8.410;2022-09-16T19:29:27;99866.38;;;12.66;92.46
32789;BME280;19141;48.980;8.410;2022-09-16T19:31:53;99865.91;;;12.63;94.00
32789;BME280;19141;48.980;8.410;2022-09-16T19:34:20;99867.31;;;12.52;94.74
32789;BME280;19141;48.980;8.410;2022-09-16T19:36:45;99868.09;;;12.46;94.08